sensor_id;sensor_type;location;lat;lon;timestamp;pressure;altitude;pressure_sealevel;temperature;humidity
76285;BME280;71676;50.998;7.098;2024-02-16T00:00:23;100528.50;;;11.07;57.95
76285;BME280;71676;50.998;7.098;2024-02-16T00:02:50;100525.91;;;11.13;57.78
76285;BME280;71676;50.998;7.098;2024-02-16T00:05:16;100523.34;;;11.06;57.65
76285;BME280;71676;50.998;7.098;2024-02-16T00:07:43;100500.09;;;10.95;57.39
76285;BME280;71676;50.998;7.098;2024-02-16T00:10:10;100518.16;;;11.12;57.67
76285;BME280;71676;50.998;7.098;2024-02-16T00:12:38;100518.16;;;11.12;57.44
76285;BME280;71676;50.998;7.098;2024-02-16T00:15:07;100520.75;;;11.16;57.35
76285;BME280;71676;50.998;7.098;2024-02-16T00:17:36;100519.03;;;11.18;57.90
76285;BME280;71676;50.998;7.098;2024-02-16T00:20:03;100519.03;;;11.15;56.96
76285;BME280;71676;50.998;7.098;2024-02-16T00:22:32;100522.50;;;11.22;57.21
76285;BME280;71676;50.998;7.098;2024-02-16T00:24:59;100521.63;;;11.21;57.35
76285;BME280;71676;50.998;7.098;2024-02-16T00:27:26;100511.28;;;11.11;57.06
76285;BME280;71676;50.998;7.098;2024-02-16T00:29:52;100516.47;;;11.17;57.00
76285;BME280;71676;50.998;7.098;2024-02-16T00:32:20;100508.72;;;11.14;57.46
76285;BME280;71676;50.998;7.098;2024-02-16T00:34:49;100508.72;;;11.12;57.54
76285;BME280;71676;50.998;7.098;2024-02-16T00:37:17;100507.00;;;11.20;57.34
76285;BME280;71676;50.998;7.098;2024-02-16T00:39:44;100514.75;;;11.28;57.22
76285;BME280;71676;50.998;7.098;2024-02-16T00:42:10;100520.78;;;11.22;57.04
76285;BME280;71676;50.998;7.098;2024-02-16T00:44:37;100519.91;;;11.19;56.93
76285;BME280;71676;50.998;7.098;2024-02-16T00:47:04;100519.03;;;11.20;56.95
76285;BME280;71676;50.998;7.098;2024-02-16T00:49:32;100520.78;;;11.22;56.86
76285;BME280;71676;50.998;7.098;2024-02-16T00:51:59;100512.16;;;11.20;57.13
76285;BME280;71676;50.998;7.098;2024-02-16T00:54:26;100510.44;;;11.24;57.15
76285;BME280;71676;50.998;7.098;2024-02-16T00:56:53;100508.72;;;11.20;57.06
76285;BME280;71676;50.998;7.098;2024-02-16T00:59:20;100507.88;;;11.21;57.19
76285;BME280;71676;50.998;7.098;2024-02-16T01:01:47;100508.72;;;11.24;57.09
76285;BME280;71676;50.998;7.098;2024-02-16T01:04:13;100511.28;;;11.23;56.89
76285;BME280;71676;50.998;7.098;2024-02-16T01:06:40;100509.56;;;11.25;56.74
76285;BME280;71676;50.998;7.098;2024-02-16T01:09:07;100519.03;;;11.09;56.47
76285;BME280;71676;50.998;7.098;2024-02-16T01:11:34;100515.63;;;11.19;56.48
76285;BME280;71676;50.998;7.098;2024-02-16T01:14:01;100516.44;;;11.23;56.84
76285;BME280;71676;50.998;7.098;2024-02-16T01:16:28;100524.22;;;11.30;56.91
76285;BME280;71676;50.998;7.098;2024-02-16T01:18:55;100511.28;;;11.26;56.44
76285;BME280;71676;50.998;7.098;2024-02-16T01:21:22;100491.53;;;11.17;56.89
76285;BME280;71676;50.998;7.098;2024-02-16T01:23:50;100512.16;;;11.28;56.77
76285;BME280;71676;50.998;7.098;2024-02-16T01:26:17;100510.44;;;11.33;56.99
76285;BME280;71676;50.998;7.098;2024-02-16T01:28:44;100510.44;;;11.39;56.86
76285;BME280;71676;50.998;7.098;2024-02-16T01:31:11;100509.59;;;11.40;56.74
76285;BME280;71676;50.998;7.098;2024-02-16T01:33:37;100507.84;;;11.36;56.94
76285;BME280;71676;50.998;7.098;2024-02-16T01:36:05;100498.38;;;11.42;56.53
76285;BME280;71676;50.998;7.098;2024-02-16T01:38:31;100500.97;;;11.45;56.27
76285;BME280;71676;50.998;7.098;2024-02-16T01:40:59;100498.41;;;11.33;55.71
76285;BME280;71676;50.998;7.098;2024-02-16T01:43:27;100500.13;;;11.31;56.64
76285;BME280;71676;50.998;7.098;2024-02-16T01:45:54;100500.13;;;11.33;56.15
76285;BME280;71676;50.998;7.098;2024-02-16T01:48:22;100500.13;;;11.31;56.56
76285;BME280;71676;50.998;7.098;2024-02-16T01:50:49;100494.09;;;11.26;56.70
76285;BME280;71676;50.998;7.098;2024-02-16T01:53:16;100487.22;;;11.28;56.53
76285;BME280;71676;50.998;7.098;2024-02-16T01:55:44;100494.09;;;11.25;56.29
76285;BME280;71676;50.998;7.098;2024-02-16T01:58:12;100489.78;;;11.15;56.29
76285;BME280;71676;50.998;7.098;2024-02-16T02:00:39;100476.00;;;11.05;56.93
76285;BME280;71676;50.998;7.098;2024-02-16T02:03:06;100482.91;;;11.18;56.52
76285;BME280;71676;50.998;7.098;2024-02-16T02:05:33;100494.97;;;11.22;56.54
76285;BME280;71676;50.998;7.098;2024-02-16T02:08:09;100479.47;;;11.09;56.44
76285;BME280;71676;50.998;7.098;2024-02-16T02:10:35;100489.78;;;11.13;56.96
76285;BME280;71676;50.998;7.098;2024-02-16T02:13:02;100488.06;;;11.18;56.63
76285;BME280;71676;50.998;7.098;2024-02-16T02:15:30;100492.38;;;11.27;56.78
76285;BME280;71676;50.998;7.098;2024-02-16T02:17:57;100491.50;;;11.26;56.88
76285;BME280;71676;50.998;7.098;2024-02-16T02:20:24;100494.94;;;11.36;56.83
76285;BME280;71676;50.998;7.098;2024-02-16T02:22:52;100497.53;;;11.16;56.50
76285;BME280;71676;50.998;7.098;2024-02-16T02:25:19;100495.81;;;11.20;56.48
76285;BME280;71676;50.998;7.098;2024-02-16T02:27:46;100496.69;;;11.22;56.54
76285;BME280;71676;50.998;7.098;2024-02-16T02:30:13;100494.97;;;11.19;57.09
76285;BME280;71676;50.998;7.098;2024-02-16T02:32:42;100488.06;;;11.23;57.13
76285;BME280;71676;50.998;7.098;2024-02-16T02:35:09;100488.91;;;11.02;57.27
76285;BME280;71676;50.998;7.098;2024-02-16T02:37:36;100493.25;;;11.03;57.70
76285;BME280;71676;50.998;7.098;2024-02-16T02:40:06;100477.75;;;11.09;57.89
76285;BME280;71676;50.998;7.098;2024-02-16T02:42:33;100476.03;;;11.17;57.87
76285;BME280;71676;50.998;7.098;2024-02-16T02:45:00;100469.13;;;11.10;58.11
76285;BME280;71676;50.998;7.098;2024-02-16T02:47:27;100473.44;;;11.23;57.83
76285;BME280;71676;50.998;7.098;2024-02-16T02:49:54;100470.88;;;11.11;58.16
76285;BME280;71676;50.998;7.098;2024-02-16T02:52:21;100476.88;;;11.16;57.91
76285;BME280;71676;50.998;7.098;2024-02-16T02:54:47;100475.16;;;11.14;58.12
76285;BME280;71676;50.998;7.098;2024-02-16T02:57:18;100474.31;;;11.24;58.14
76285;BME280;71676;50.998;7.098;2024-02-16T02:59:45;100483.78;;;11.22;58.06
76285;BME280;71676;50.998;7.098;2024-02-16T03:02:11;100489.81;;;11.25;57.81
76285;BME280;71676;50.998;7.098;2024-02-16T03:04:38;100479.47;;;11.00;58.45
76285;BME280;71676;50.998;7.098;2024-02-16T03:07:05;100482.03;;;11.06;58.36
76285;BME280;71676;50.998;7.098;2024-02-16T03:09:31;100481.19;;;10.92;59.08
76285;BME280;71676;50.998;7.098;2024-02-16T03:11:58;100468.28;;;11.04;58.89
76285;BME280;71676;50.998;7.098;2024-02-16T03:14:26;100473.44;;;10.92;59.31
76285;BME280;71676;50.998;7.098;2024-02-16T03:16:52;100490.66;;;11.09;58.92
76285;BME280;71676;50.998;7.098;2024-02-16T03:19:19;100455.38;;;11.08;59.40
76285;BME280;71676;50.998;7.098;2024-02-16T03:21:47;100445.94;;;10.95;60.03
76285;BME280;71676;50.998;7.098;2024-02-16T03:24:13;100459.66;;;10.91;60.28
76285;BME280;71676;50.998;7.098;2024-02-16T03:26:40;100457.97;;;10.95;60.66
76285;BME280;71676;50.998;7.098;2024-02-16T03:29:06;100476.00;;;10.93;60.25
76285;BME280;71676;50.998;7.098;2024-02-16T03:31:34;100474.31;;;10.94;60.27
76285;BME280;71676;50.998;7.098;2024-02-16T03:34:01;100477.72;;;11.00;60.26
76285;BME280;71676;50.998;7.098;2024-02-16T03:36:28;100477.75;;;11.09;59.85
76285;BME280;71676;50.998;7.098;2024-02-16T03:38:56;100466.56;;;11.13;59.43
76285;BME280;71676;50.998;7.098;2024-02-16T03:41:23;100468.28;;;11.16;59.48
76285;BME280;71676;50.998;7.098;2024-02-16T03:43:50;100475.16;;;11.20;59.52
76285;BME280;71676;50.998;7.098;2024-02-16T03:46:16;100457.94;;;11.04;59.37
76285;BME280;71676;50.998;7.098;2024-02-16T03:48:44;100466.56;;;11.03;59.95
76285;BME280;71676;50.998;7.098;2024-02-16T03:51:11;100460.53;;;10.98;59.98
76285;BME280;71676;50.998;7.098;2024-02-16T03:53:38;100464.81;;;10.90;60.17
76285;BME280;71676;50.998;7.098;2024-02-16T03:56:05;100444.19;;;10.82;59.76
76285;BME280;71676;50.998;7.098;2024-02-16T03:58:33;100466.53;;;10.82;60.37
76285;BME280;71676;50.998;7.098;2024-02-16T04:00:59;100463.09;;;10.72;60.44
76285;BME280;71676;50.998;7.098;2024-02-16T04:03:26;100473.41;;;10.77;60.61
76285;BME280;71676;50.998;7.098;2024-02-16T04:05:54;100445.00;;;10.54;60.46
76285;BME280;71676;50.998;7.098;2024-02-16T04:08:21;100471.69;;;10.82;60.48
76285;BME280;71676;50.998;7.098;2024-02-16T04:10:47;100472.53;;;10.72;60.58
76285;BME280;71676;50.998;7.098;2024-02-16T04:13:14;100474.28;;;10.71;60.41
76285;BME280;71676;50.998;7.098;2024-02-16T04:15:40;100473.41;;;10.78;60.44
76285;BME280;71676;50.998;7.098;2024-02-16T04:18:07;100473.41;;;10.83;60.25
76285;BME280;71676;50.998;7.098;2024-02-16T04:20:34;100466.53;;;10.79;60.19
76285;BME280;71676;50.998;7.098;2024-02-16T04:23:02;100460.50;;;10.75;60.48
76285;BME280;71676;50.998;7.098;2024-02-16T04:25:29;100457.94;;;10.78;60.48
76285;BME280;71676;50.998;7.098;2024-02-16T04:27:55;100454.50;;;10.78;60.76
76285;BME280;71676;50.998;7.098;2024-02-16T04:30:22;100458.78;;;10.70;60.78
76285;BME280;71676;50.998;7.098;2024-02-16T04:32:49;100454.50;;;10.76;60.35
76285;BME280;71676;50.998;7.098;2024-02-16T04:35:15;100457.94;;;10.74;60.97
76285;BME280;71676;50.998;7.098;2024-02-16T04:37:42;100460.50;;;10.63;61.11
76285;BME280;71676;50.998;7.098;2024-02-16T04:40:11;100469.94;;;10.73;61.10
76285;BME280;71676;50.998;7.098;2024-02-16T04:42:38;100479.38;;;10.56;62.05
76285;BME280;71676;50.998;7.098;2024-02-16T04:45:06;100492.34;;;10.83;61.08
76285;BME280;71676;50.998;7.098;2024-02-16T04:47:33;100489.75;;;10.80;61.01
76285;BME280;71676;50.998;7.098;2024-02-16T04:50:00;100482.84;;;10.70;61.46
76285;BME280;71676;50.998;7.098;2024-02-16T04:52:27;100488.00;;;10.61;61.95
76285;BME280;71676;50.998;7.098;2024-02-16T04:54:53;100493.94;;;10.43;63.08
76285;BME280;71676;50.998;7.098;2024-02-16T04:57:21;100493.97;;;10.54;62.89
76285;BME280;71676;50.998;7.098;2024-02-16T04:59:48;100492.25;;;10.54;62.44
76285;BME280;71676;50.998;7.098;2024-02-16T05:02:15;100493.13;;;10.52;63.03
76285;BME280;71676;50.998;7.098;2024-02-16T05:04:41;100492.28;;;10.57;62.84
76285;BME280;71676;50.998;7.098;2024-02-16T05:07:08;100501.69;;;10.49;63.40
76285;BME280;71676;50.998;7.098;2024-02-16T05:09:35;100492.25;;;10.48;63.46
76285;BME280;71676;50.998;7.098;2024-02-16T05:12:02;100493.97;;;10.54;62.89
76285;BME280;71676;50.998;7.098;2024-02-16T05:14:33;100474.16;;;10.36;63.29
76285;BME280;71676;50.998;7.098;2024-02-16T05:17:00;100505.22;;;10.68;62.59
76285;BME280;71676;50.998;7.098;2024-02-16T05:19:27;100501.78;;;10.80;62.25
76285;BME280;71676;50.998;7.098;2024-02-16T05:21:53;100500.06;;;10.77;61.97
76285;BME280;71676;50.998;7.098;2024-02-16T05:24:20;100504.34;;;10.83;61.94
76285;BME280;71676;50.998;7.098;2024-02-16T05:26:48;100494.94;;;10.97;61.69
76285;BME280;71676;50.998;7.098;2024-02-16T05:29:16;100505.22;;;10.83;62.80
76285;BME280;71676;50.998;7.098;2024-02-16T05:31:44;100497.50;;;10.79;62.37
76285;BME280;71676;50.998;7.098;2024-02-16T05:34:11;100497.50;;;10.83;62.25
76285;BME280;71676;50.998;7.098;2024-02-16T05:36:39;100500.94;;;10.79;62.96
76285;BME280;71676;50.998;7.098;2024-02-16T05:39:07;100503.47;;;10.61;63.31
76285;BME280;71676;50.998;7.098;2024-02-16T05:41:45;100496.56;;;10.54;64.08
76285;BME280;71676;50.998;7.098;2024-02-16T05:44:12;100491.25;;;10.27;64.38
76285;BME280;71676;50.998;7.098;2024-02-16T05:46:38;100490.50;;;10.38;64.65
76285;BME280;71676;50.998;7.098;2024-02-16T05:49:06;100491.25;;;10.27;64.83
76285;BME280;71676;50.998;7.098;2024-02-16T05:51:35;100494.78;;;10.41;64.76
76285;BME280;71676;50.998;7.098;2024-02-16T05:54:02;100484.41;;;10.29;65.23
76285;BME280;71676;50.998;7.098;2024-02-16T05:56:28;100489.66;;;10.44;64.26
76285;BME280;71676;50.998;7.098;2024-02-16T05:58:57;100485.34;;;10.40;64.45
76285;BME280;71676;50.998;7.098;2024-02-16T06:01:24;100487.06;;;10.41;64.62
76285;BME280;71676;50.998;7.098;2024-02-16T06:03:52;100490.50;;;10.37;65.02
76285;BME280;71676;50.998;7.098;2024-02-16T06:06:20;100489.56;;;10.32;64.95
76285;BME280;71676;50.998;7.098;2024-02-16T06:08:46;100484.50;;;10.45;64.43
76285;BME280;71676;50.998;7.098;2024-02-16T06:11:13;100488.69;;;10.28;64.93
76285;BME280;71676;50.998;7.098;2024-02-16T06:13:41;100496.53;;;10.43;64.25
76285;BME280;71676;50.998;7.098;2024-02-16T06:16:08;100485.34;;;10.37;64.47
76285;BME280;71676;50.998;7.098;2024-02-16T06:18:35;100483.63;;;10.39;64.06
76285;BME280;71676;50.998;7.098;2024-02-16T06:21:01;100497.41;;;10.45;64.08
76285;BME280;71676;50.998;7.098;2024-02-16T06:23:29;100500.00;;;10.48;63.89
76285;BME280;71676;50.998;7.098;2024-02-16T06:25:56;100493.97;;;10.51;63.43
76285;BME280;71676;50.998;7.098;2024-02-16T06:28:22;100505.16;;;10.51;63.48
76285;BME280;71676;50.998;7.098;2024-02-16T06:30:49;100507.66;;;10.41;63.61
76285;BME280;71676;50.998;7.098;2024-02-16T06:33:16;100512.81;;;10.41;63.30
76285;BME280;71676;50.998;7.098;2024-02-16T06:35:42;100500.69;;;10.23;63.90
76285;BME280;71676;50.998;7.098;2024-02-16T06:38:11;100487.03;;;10.36;63.45
76285;BME280;71676;50.998;7.098;2024-02-16T06:40:39;100495.72;;;10.52;63.02
76285;BME280;71676;50.998;7.098;2024-02-16T06:43:06;100493.94;;;10.39;63.24
76285;BME280;71676;50.998;7.098;2024-02-16T06:45:32;100496.53;;;10.39;63.16
76285;BME280;71676;50.998;7.098;2024-02-16T06:47:59;100486.22;;;10.43;63.17
76285;BME280;71676;50.998;7.098;2024-02-16T06:50:26;100498.25;;;10.47;62.93
76285;BME280;71676;50.998;7.098;2024-02-16T06:52:52;100494.84;;;10.47;62.68
76285;BME280;71676;50.998;7.098;2024-02-16T06:55:20;100483.72;;;10.63;62.28
76285;BME280;71676;50.998;7.098;2024-02-16T06:57:48;100490.59;;;10.73;62.13
76285;BME280;71676;50.998;7.098;2024-02-16T07:00:16;100495.72;;;10.67;61.94
76285;BME280;71676;50.998;7.098;2024-02-16T07:02:45;100511.22;;;10.75;61.60
76285;BME280;71676;50.998;7.098;2024-02-16T07:05:12;100497.47;;;10.73;60.98
76285;BME280;71676;50.998;7.098;2024-02-16T07:07:39;100522.41;;;10.69;61.53
76285;BME280;71676;50.998;7.098;2024-02-16T07:10:07;100508.63;;;10.75;61.34
76285;BME280;71676;50.998;7.098;2024-02-16T07:12:39;100523.28;;;10.83;61.27
76285;BME280;71676;50.998;7.098;2024-02-16T07:15:07;100537.06;;;10.94;61.30
76285;BME280;71676;50.998;7.098;2024-02-16T07:17:35;100532.78;;;11.02;61.20
76285;BME280;71676;50.998;7.098;2024-02-16T07:20:02;100537.94;;;11.02;60.60
76285;BME280;71676;50.998;7.098;2024-02-16T07:22:30;100552.59;;;11.14;61.02
76285;BME280;71676;50.998;7.098;2024-02-16T07:24:57;100561.19;;;11.20;60.47
76285;BME280;71676;50.998;7.098;2024-02-16T07:27:25;100563.78;;;11.34;60.71
76285;BME280;71676;50.998;7.098;2024-02-16T07:29:52;100542.25;;;11.05;60.39
76285;BME280;71676;50.998;7.098;2024-02-16T07:32:20;100567.19;;;11.06;60.76
76285;BME280;71676;50.998;7.098;2024-02-16T07:34:46;100568.91;;;11.05;60.98
76285;BME280;71676;50.998;7.098;2024-02-16T07:37:13;100575.81;;;11.14;60.96
76285;BME280;71676;50.998;7.098;2024-02-16T07:39:41;100574.09;;;11.19;60.84
76285;BME280;71676;50.998;7.098;2024-02-16T07:42:07;100569.78;;;11.13;60.96
76285;BME280;71676;50.998;7.098;2024-02-16T07:44:35;100587.84;;;11.03;61.32
76285;BME280;71676;50.998;7.098;2024-02-16T07:47:01;100597.28;;;11.07;61.06
76285;BME280;71676;50.998;7.098;2024-02-16T07:49:29;100585.25;;;11.09;60.83
76285;BME280;71676;50.998;7.098;2024-02-16T07:51:56;100598.16;;;11.00;60.93
76285;BME280;71676;50.998;7.098;2024-02-16T07:54:23;100590.31;;;10.68;61.50
76285;BME280;71676;50.998;7.098;2024-02-16T07:56:50;100599.84;;;10.98;61.63
76285;BME280;71676;50.998;7.098;2024-02-16T07:59:16;100612.69;;;10.83;61.33
76285;BME280;71676;50.998;7.098;2024-02-16T08:01:44;100604.19;;;11.03;61.12
76285;BME280;71676;50.998;7.098;2024-02-16T08:04:10;100611.94;;;11.03;61.21
76285;BME280;71676;50.998;7.098;2024-02-16T08:06:38;100620.50;;;10.93;61.88
76285;BME280;71676;50.998;7.098;2024-02-16T08:09:05;100608.41;;;10.89;61.68
76285;BME280;71676;50.998;7.098;2024-02-16T08:11:32;100609.28;;;10.93;61.64
76285;BME280;71676;50.998;7.098;2024-02-16T08:13:59;100623.13;;;11.16;61.57
76285;BME280;71676;50.998;7.098;2024-02-16T08:16:26;100619.69;;;11.14;61.47
76285;BME280;71676;50.998;7.098;2024-02-16T08:18:53;100635.16;;;11.03;61.38
76285;BME280;71676;50.998;7.098;2024-02-16T08:21:20;100632.53;;;10.99;61.83
76285;BME280;71676;50.998;7.098;2024-02-16T08:23:48;100635.16;;;11.03;61.63
76285;BME280;71676;50.998;7.098;2024-02-16T08:26:15;100633.47;;;11.14;61.60
76285;BME280;71676;50.998;7.098;2024-02-16T08:28:43;100619.69;;;11.12;61.74
76285;BME280;71676;50.998;7.098;2024-02-16T08:31:15;100636.06;;;11.32;61.48
76285;BME280;71676;50.998;7.098;2024-02-16T08:33:43;100639.50;;;11.25;61.52
76285;BME280;71676;50.998;7.098;2024-02-16T08:36:09;100648.13;;;11.32;61.16
76285;BME280;71676;50.998;7.098;2024-02-16T08:38:36;100636.03;;;11.14;61.55
76285;BME280;71676;50.998;7.098;2024-02-16T08:41:04;100627.44;;;11.15;61.42
76285;BME280;71676;50.998;7.098;2024-02-16T08:43:31;100636.88;;;11.09;61.33
76285;BME280;71676;50.998;7.098;2024-02-16T08:45:57;100640.34;;;11.20;61.45
76285;BME280;71676;50.998;7.098;2024-02-16T08:48:24;100648.09;;;11.24;61.20
76285;BME280;71676;50.998;7.098;2024-02-16T08:50:51;100646.38;;;11.31;60.93
76285;BME280;71676;50.998;7.098;2024-02-16T08:53:18;100630.03;;;11.21;60.86
76285;BME280;71676;50.998;7.098;2024-02-16T08:55:44;100650.78;;;11.56;60.88
76285;BME280;71676;50.998;7.098;2024-02-16T08:58:12;100655.88;;;11.41;60.96
76285;BME280;71676;50.998;7.098;2024-02-16T09:00:39;100654.19;;;11.43;60.31
76285;BME280;71676;50.998;7.098;2024-02-16T09:03:05;100653.31;;;11.44;60.70
76285;BME280;71676;50.998;7.098;2024-02-16T09:05:33;100662.78;;;11.43;60.46
76285;BME280;71676;50.998;7.098;2024-02-16T09:08:00;100661.97;;;11.50;60.42
76285;BME280;71676;50.998;7.098;2024-02-16T09:10:28;100656.78;;;11.59;60.14
76285;BME280;71676;50.998;7.098;2024-02-16T09:12:55;100657.59;;;11.37;60.45
76285;BME280;71676;50.998;7.098;2024-02-16T09:15:23;100658.47;;;11.45;60.62
76285;BME280;71676;50.998;7.098;2024-02-16T09:17:49;100668.81;;;11.47;60.66
76285;BME280;71676;50.998;7.098;2024-02-16T09:20:16;100662.84;;;11.55;60.51
76285;BME280;71676;50.998;7.098;2024-02-16T09:22:48;100668.88;;;11.54;60.70
76285;BME280;71676;50.998;7.098;2024-02-16T09:25:15;100674.91;;;11.61;60.47
76285;BME280;71676;50.998;7.098;2024-02-16T09:27:41;100671.47;;;11.74;59.84
76285;BME280;71676;50.998;7.098;2024-02-16T09:30:11;100678.34;;;11.88;60.05
76285;BME280;71676;50.998;7.098;2024-02-16T09:32:40;100672.34;;;12.04;59.63
76285;BME280;71676;50.998;7.098;2024-02-16T09:35:07;100640.47;;;11.71;59.08
76285;BME280;71676;50.998;7.098;2024-02-16T09:37:34;100685.25;;;11.76;59.20
76285;BME280;71676;50.998;7.098;2024-02-16T09:40:04;100684.38;;;11.66;59.51
76285;BME280;71676;50.998;7.098;2024-02-16T09:42:31;100689.53;;;11.69;60.10
76285;BME280;71676;50.998;7.098;2024-02-16T09:44:59;100696.44;;;11.75;60.04
76285;BME280;71676;50.998;7.098;2024-02-16T09:47:26;100696.44;;;11.85;60.32
76285;BME280;71676;50.998;7.098;2024-02-16T09:49:56;100690.44;;;11.86;60.51
76285;BME280;71676;50.998;7.098;2024-02-16T09:52:24;100711.94;;;11.90;60.94
76285;BME280;71676;50.998;7.098;2024-02-16T09:54:50;100711.06;;;11.77;60.77
76285;BME280;71676;50.998;7.098;2024-02-16T09:57:17;100710.25;;;11.80;60.97
76285;BME280;71676;50.998;7.098;2024-02-16T09:59:44;100715.41;;;11.78;60.76
76285;BME280;71676;50.998;7.098;2024-02-16T10:02:11;100718.00;;;11.86;60.68
76285;BME280;71676;50.998;7.098;2024-02-16T10:04:37;100724.00;;;11.74;61.23
76285;BME280;71676;50.998;7.098;2024-02-16T10:07:05;100724.00;;;11.85;60.46
76285;BME280;71676;50.998;7.098;2024-02-16T10:09:32;100724.88;;;11.81;61.02
76285;BME280;71676;50.998;7.098;2024-02-16T10:11:59;100723.09;;;11.53;61.35
76285;BME280;71676;50.998;7.098;2024-02-16T10:14:25;100723.13;;;11.62;61.29
76285;BME280;71676;50.998;7.098;2024-02-16T10:16:59;100730.91;;;11.80;60.83
76285;BME280;71676;50.998;7.098;2024-02-16T10:19:28;100735.16;;;11.63;61.26
76285;BME280;71676;50.998;7.098;2024-02-16T10:22:07;100731.72;;;11.62;61.24
76285;BME280;71676;50.998;7.098;2024-02-16T10:24:33;100742.06;;;11.70;60.84
76285;BME280;71676;50.998;7.098;2024-02-16T10:27:00;100741.19;;;11.68;60.88
76285;BME280;71676;50.998;7.098;2024-02-16T10:29:27;100750.69;;;11.69;60.75
76285;BME280;71676;50.998;7.098;2024-02-16T10:31:54;100751.53;;;11.71;61.26
76285;BME280;71676;50.998;7.098;2024-02-16T10:34:23;100751.53;;;11.69;60.92
76285;BME280;71676;50.998;7.098;2024-02-16T10:36:51;100760.16;;;11.82;60.81
76285;BME280;71676;50.998;7.098;2024-02-16T10:39:19;100767.03;;;11.71;60.73
76285;BME280;71676;50.998;7.098;2024-02-16T10:41:46;100776.47;;;11.63;61.15
76285;BME280;71676;50.998;7.098;2024-02-16T10:44:15;100776.53;;;11.84;60.80
76285;BME280;71676;50.998;7.098;2024-02-16T10:46:41;100775.72;;;11.98;60.88
76285;BME280;71676;50.998;7.098;2024-02-16T10:49:08;100781.72;;;11.93;60.76
76285;BME280;71676;50.998;7.098;2024-02-16T10:51:37;100775.75;;;12.12;60.84
76285;BME280;71676;50.998;7.098;2024-02-16T10:54:05;100777.47;;;12.02;60.94
76285;BME280;71676;50.998;7.098;2024-02-16T10:56:35;100786.00;;;11.82;61.48
76285;BME280;71676;50.998;7.098;2024-02-16T10:59:02;100781.72;;;11.93;61.83
76285;BME280;71676;50.998;7.098;2024-02-16T11:01:36;100793.78;;;11.89;62.27
76285;BME280;71676;50.998;7.098;2024-02-16T11:04:04;100785.16;;;11.81;61.77
76285;BME280;71676;50.998;7.098;2024-02-16T11:06:44;100791.16;;;11.79;62.42
76285;BME280;71676;50.998;7.098;2024-02-16T11:09:11;100795.44;;;11.65;62.82
76285;BME280;71676;50.998;7.098;2024-02-16T11:11:39;100783.41;;;11.76;63.01
76285;BME280;71676;50.998;7.098;2024-02-16T11:14:14;100780.78;;;11.59;63.50
76285;BME280;71676;50.998;7.098;2024-02-16T11:16:44;100786.81;;;11.67;63.58
76285;BME280;71676;50.998;7.098;2024-02-16T11:19:11;100781.69;;;11.69;63.46
76285;BME280;71676;50.998;7.098;2024-02-16T11:21:39;100782.44;;;11.48;64.22
76285;BME280;71676;50.998;7.098;2024-02-16T11:24:07;100790.22;;;11.50;63.89
76285;BME280;71676;50.998;7.098;2024-02-16T11:26:44;100795.44;;;11.68;63.96
76285;BME280;71676;50.998;7.098;2024-02-16T11:29:11;100793.75;;;11.85;63.04
76285;BME280;71676;50.998;7.098;2024-02-16T11:31:38;100795.50;;;11.78;63.62
76285;BME280;71676;50.998;7.098;2024-02-16T11:34:04;100798.09;;;11.89;63.34
76285;BME280;71676;50.998;7.098;2024-02-16T11:36:31;100786.00;;;11.83;63.63
76285;BME280;71676;50.998;7.098;2024-02-16T11:38:58;100786.88;;;11.91;63.40
76285;BME280;71676;50.998;7.098;2024-02-16T11:41:25;100790.34;;;11.92;62.81
76285;BME280;71676;50.998;7.098;2024-02-16T11:44:00;100790.34;;;11.96;63.19
76285;BME280;71676;50.998;7.098;2024-02-16T11:46:27;100783.47;;;11.92;63.08
76285;BME280;71676;50.998;7.098;2024-02-16T11:49:04;100784.34;;;12.00;62.60
76285;BME280;71676;50.998;7.098;2024-02-16T11:51:31;100792.09;;;12.03;62.85
76285;BME280;71676;50.998;7.098;2024-02-16T11:53:58;100764.50;;;11.80;62.74
76285;BME280;71676;50.998;7.098;2024-02-16T11:56:25;100797.25;;;12.07;62.40
76285;BME280;71676;50.998;7.098;2024-02-16T11:58:53;100802.44;;;12.17;62.39
76285;BME280;71676;50.998;7.098;2024-02-16T12:01:21;100801.59;;;12.29;62.59
76285;BME280;71676;50.998;7.098;2024-02-16T12:03:47;100799.00;;;12.24;62.49
76285;BME280;71676;50.998;7.098;2024-02-16T12:06:19;100805.00;;;12.05;63.04
76285;BME280;71676;50.998;7.098;2024-02-16T12:08:47;100777.47;;;12.15;62.16
76285;BME280;71676;50.998;7.098;2024-02-16T12:11:13;100801.59;;;12.26;62.79
76285;BME280;71676;50.998;7.098;2024-02-16T12:13:41;100805.91;;;12.37;63.41
76285;BME280;71676;50.998;7.098;2024-02-16T12:16:07;100805.91;;;12.39;62.90
76285;BME280;71676;50.998;7.098;2024-02-16T12:18:35;100797.28;;;12.43;62.94
76285;BME280;71676;50.998;7.098;2024-02-16T12:21:04;100803.31;;;12.45;63.39
76285;BME280;71676;50.998;7.098;2024-02-16T12:23:31;100806.78;;;12.53;63.28
76285;BME280;71676;50.998;7.098;2024-02-16T12:25:58;100810.25;;;12.59;63.36
76285;BME280;71676;50.998;7.098;2024-02-16T12:28:27;100816.31;;;12.57;63.55
76285;BME280;71676;50.998;7.098;2024-02-16T12:30:54;100816.31;;;12.61;62.86
76285;BME280;71676;50.998;7.098;2024-02-16T12:33:21;100819.75;;;12.62;62.93
76285;BME280;71676;50.998;7.098;2024-02-16T12:35:50;100804.19;;;12.50;63.84
76285;BME280;71676;50.998;7.098;2024-02-16T12:38:17;100817.09;;;12.35;64.03
76285;BME280;71676;50.998;7.098;2024-02-16T12:40:44;100826.59;;;12.46;63.95
76285;BME280;71676;50.998;7.098;2024-02-16T12:43:11;100828.34;;;12.53;63.44
76285;BME280;71676;50.998;7.098;2024-02-16T12:45:38;100832.63;;;12.53;63.68
76285;BME280;71676;50.998;7.098;2024-02-16T12:48:06;100839.53;;;12.52;64.43
76285;BME280;71676;50.998;7.098;2024-02-16T12:50:34;100831.78;;;12.51;63.97